sensor_id;sensor_type;location;lat;lon;timestamp;temperature;humidity
11538;DHT22;50159;49.426;11.182;2023-01-09T00:00:57;4.90;99.90
11538;DHT22;50159;49.426;11.182;2023-01-09T00:03:24;4.90;99.90
11538;DHT22;50159;49.426;11.182;2023-01-09T00:05:51;4.90;99.90
11538;DHT22;50159;49.426;11.182;2023-01-09T00:08:18;4.90;99.90
11538;DHT22;50159;49.426;11.182;2023-01-09T00:10:45;4.90;99.90
11538;DHT22;50159;49.426;11.182;2023-01-09T00:13:14;4.90;99.90
11538;DHT22;50159;49.426;11.182;2023-01-09T00:15:43;4.90;99.90
11538;DHT22;50159;49.426;11.182;2023-01-09T00:18:10;4.90;99.90
11538;DHT22;50159;49.426;11.182;2023-01-09T00:20:37;4.90;99.90
11538;DHT22;50159;49.426;11.182;2023-01-09T00:23:04;4.90;99.90
11538;DHT22;50159;49.426;11.182;2023-01-09T00:25:30;4.90;99.90
11538;DHT22;50159;49.426;11.182;2023-01-09T00:27:57;4.90;99.90
11538;DHT22;50159;49.426;11.182;2023-01-09T00:30:24;4.90;99.90
11538;DHT22;50159;49.426;11.182;2023-01-09T00:32:53;4.90;99.90
11538;DHT22;50159;49.426;11.182;2023-01-09T00:35:22;4.90;99.90
11538;DHT22;50159;49.426;11.182;2023-01-09T00:37:50;4.90;99.90
11538;DHT22;50159;49.426;11.182;2023-01-09T00:40:17;4.90;99.90
11538;DHT22;50159;49.426;11.182;2023-01-09T00:42:49;5.00;99.90
11538;DHT22;50159;49.426;11.182;2023-01-09T00:45:21;5.00;99.90
11538;DHT22;50159;49.426;11.182;2023-01-09T00:48:01;5.00;99.90
11538;DHT22;50159;49.426;11.182;2023-01-09T00:50:33;5.00;99.90
11538;DHT22;50159;49.426;11.182;2023-01-09T00:53:08;5.00;99.90
11538;DHT22;50159;49.426;11.182;2023-01-09T00:55:39;5.00;99.90
11538;DHT22;50159;49.426;11.182;2023-01-09T00:58:06;5.00;99.90
11538;DHT22;50159;49.426;11.182;2023-01-09T01:00:34;5.00;99.90
11538;DHT22;50159;49.426;11.182;2023-01-09T01:03:01;5.00;99.90
11538;DHT22;50159;49.426;11.182;2023-01-09T01:05:28;4.90;99.90
11538;DHT22;50159;49.426;11.182;2023-01-09T01:08:15;4.90;99.90
11538;DHT22;50159;49.426;11.182;2023-01-09T01:10:44;4.90;99.90
11538;DHT22;50159;49.426;11.182;2023-01-09T01:13:13;4.90;99.90
11538;DHT22;50159;49.426;11.182;2023-01-09T01:15:41;4.90;99.90
11538;DHT22;50159;49.426;11.182;2023-01-09T01:18:10;4.90;99.90
11538;DHT22;50159;49.426;11.182;2023-01-09T01:20:40;4.90;99.90
11538;DHT22;50159;49.426;11.182;2023-01-09T01:23:08;4.90;99.90
11538;DHT22;50159;49.426;11.182;2023-01-09T01:25:40;4.90;99.90
11538;DHT22;50159;49.426;11.182;2023-01-09T01:28:08;4.90;99.90
11538;DHT22;50159;49.426;11.182;2023-01-09T01:30:40;4.90;99.90
11538;DHT22;50159;49.426;11.182;2023-01-09T01:33:09;4.90;99.90
11538;DHT22;50159;49.426;11.182;2023-01-09T01:35:36;4.90;99.90
11538;DHT22;50159;49.426;11.182;2023-01-09T01:38:03;4.90;99.90
11538;DHT22;50159;49.426;11.182;2023-01-09T01:40:31;4.90;99.90
11538;DHT22;50159;49.426;11.182;2023-01-09T01:42:57;4.90;99.90
11538;DHT22;50159;49.426;11.182;2023-01-09T01:45:26;4.80;99.90
11538;DHT22;50159;49.426;11.182;2023-01-09T01:48:05;4.80;99.90
11538;DHT22;50159;49.426;11.182;2023-01-09T01:53:27;4.80;99.90
11538;DHT22;50159;49.426;11.182;2023-01-09T01:56:27;4.80;99.90
11538;DHT22;50159;49.426;11.182;2023-01-09T02:01:43;4.80;99.90
11538;DHT22;50159;49.426;11.182;2023-01-09T02:04:14;4.80;99.90
11538;DHT22;50159;49.426;11.182;2023-01-09T02:06:43;4.80;99.90
11538;DHT22;50159;49.426;11.182;2023-01-09T02:09:12;4.80;99.90
11538;DHT22;50159;49.426;11.182;2023-01-09T02:11:48;4.70;99.90
11538;DHT22;50159;49.426;11.182;2023-01-09T02:14:21;4.70;99.90
11538;DHT22;50159;49.426;11.182;2023-01-09T02:20:30;4.70;99.90
11538;DHT22;50159;49.426;11.182;2023-01-09T02:26:07;4.70;99.90
11538;DHT22;50159;49.426;11.182;2023-01-09T02:43:38;4.80;99.90
11538;DHT22;50159;49.426;11.182;2023-01-09T02:46:21;4.80;99.90
11538;DHT22;50159;49.426;11.182;2023-01-09T02:48:53;4.80;99.90
11538;DHT22;50159;49.426;11.182;2023-01-09T02:51:35;4.80;99.90
11538;DHT22;50159;49.426;11.182;2023-01-09T02:54:43;4.80;99.90
11538;DHT22;50159;49.426;11.182;2023-01-09T03:03:06;4.80;99.90
11538;DHT22;50159;49.426;11.182;2023-01-09T03:05:46;4.80;99.90
11538;DHT22;50159;49.426;11.182;2023-01-09T03:08:22;4.80;99.90
11538;DHT22;50159;49.426;11.182;2023-01-09T03:11:01;4.80;99.90
11538;DHT22;50159;49.426;11.182;2023-01-09T03:13:40;4.80;99.90
11538;DHT22;50159;49.426;11.182;2023-01-09T03:16:14;4.70;99.90
11538;DHT22;50159;49.426;11.182;2023-01-09T03:18:48;4.70;99.90
11538;DHT22;50159;49.426;11.182;2023-01-09T03:21:17;4.70;99.90
11538;DHT22;50159;49.426;11.182;2023-01-09T03:23:54;4.60;99.90
11538;DHT22;50159;49.426;11.182;2023-01-09T03:26:22;4.70;99.90
11538;DHT22;50159;49.426;11.182;2023-01-09T03:28:50;4.70;99.90
11538;DHT22;50159;49.426;11.182;2023-01-09T03:31:17;4.60;99.90
11538;DHT22;50159;49.426;11.182;2023-01-09T03:33:44;4.60;99.90
11538;DHT22;50159;49.426;11.182;2023-01-09T03:36:11;4.60;99.90
11538;DHT22;50159;49.426;11.182;2023-01-09T03:38:39;4.60;99.90
11538;DHT22;50159;49.426;11.182;2023-01-09T03:41:07;4.60;99.90
11538;DHT22;50159;49.426;11.182;2023-01-09T03:43:34;4.60;99.90
11538;DHT22;50159;49.426;11.182;2023-01-09T03:46:01;4.60;99.90
11538;DHT22;50159;49.426;11.182;2023-01-09T03:48:28;4.60;99.90
11538;DHT22;50159;49.426;11.182;2023-01-09T03:50:56;4.60;99.90
11538;DHT22;50159;49.426;11.182;2023-01-09T03:53:24;4.60;99.90
11538;DHT22;50159;49.426;11.182;2023-01-09T03:55:55;4.50;99.90
11538;DHT22;50159;49.426;11.182;2023-01-09T03:58:23;4.50;99.90
11538;DHT22;50159;49.426;11.182;2023-01-09T04:00:56;4.50;99.90
11538;DHT22;50159;49.426;11.182;2023-01-09T04:03:24;4.50;99.90
11538;DHT22;50159;49.426;11.182;2023-01-09T04:05:51;4.50;99.90
11538;DHT22;50159;49.426;11.182;2023-01-09T04:08:18;4.50;99.90
11538;DHT22;50159;49.426;11.182;2023-01-09T04:10:46;4.50;99.90
11538;DHT22;50159;49.426;11.182;2023-01-09T04:13:15;4.50;99.90
11538;DHT22;50159;49.426;11.182;2023-01-09T04:15:41;4.50;99.90
11538;DHT22;50159;49.426;11.182;2023-01-09T04:18:08;4.50;99.90
11538;DHT22;50159;49.426;11.182;2023-01-09T04:20:35;4.50;99.90
11538;DHT22;50159;49.426;11.182;2023-01-09T04:23:02;4.60;99.90
11538;DHT22;50159;49.426;11.182;2023-01-09T04:25:29;4.50;99.90
11538;DHT22;50159;49.426;11.182;2023-01-09T04:27:56;4.60;99.90
11538;DHT22;50159;49.426;11.182;2023-01-09T04:30:23;4.50;99.90
11538;DHT22;50159;49.426;11.182;2023-01-09T04:32:50;4.60;99.90
11538;DHT22;50159;49.426;11.182;2023-01-09T04:35:18;4.60;99.90
11538;DHT22;50159;49.426;11.182;2023-01-09T04:37:45;4.60;99.90
11538;DHT22;50159;49.426;11.182;2023-01-09T04:40:13;4.60;99.90
11538;DHT22;50159;49.426;11.182;2023-01-09T04:42:40;4.70;99.90
11538;DHT22;50159;49.426;11.182;2023-01-09T04:45:09;4.70;99.90
11538;DHT22;50159;49.426;11.182;2023-01-09T04:47:37;4.70;99.90
11538;DHT22;50159;49.426;11.182;2023-01-09T04:50:04;4.70;99.90
11538;DHT22;50159;49.426;11.182;2023-01-09T04:52:31;4.70;99.90
11538;DHT22;50159;49.426;11.182;2023-01-09T04:54:58;4.70;99.90
11538;DHT22;50159;49.426;11.182;2023-01-09T04:57:24;4.70;99.90
11538;DHT22;50159;49.426;11.182;2023-01-09T04:59:51;4.70;99.90
11538;DHT22;50159;49.426;11.182;2023-01-09T05:02:19;4.70;99.90
11538;DHT22;50159;49.426;11.182;2023-01-09T05:04:46;4.70;99.90
11538;DHT22;50159;49.426;11.182;2023-01-09T05:07:13;4.70;99.90
11538;DHT22;50159;49.426;11.182;2023-01-09T05:09:40;4.70;99.90
11538;DHT22;50159;49.426;11.182;2023-01-09T05:12:07;4.80;99.90
11538;DHT22;50159;49.426;11.182;2023-01-09T05:14:34;4.80;99.90
11538;DHT22;50159;49.426;11.182;2023-01-09T05:17:01;4.80;99.90
11538;DHT22;50159;49.426;11.182;2023-01-09T05:19:27;4.80;99.90
11538;DHT22;50159;49.426;11.182;2023-01-09T05:21:54;4.80;99.90
11538;DHT22;50159;49.426;11.182;2023-01-09T05:24:21;4.90;99.90
11538;DHT22;50159;49.426;11.182;2023-01-09T05:26:48;4.90;99.90
11538;DHT22;50159;49.426;11.182;2023-01-09T05:29:14;4.90;99.90
11538;DHT22;50159;49.426;11.182;2023-01-09T05:31:41;4.90;99.90
11538;DHT22;50159;49.426;11.182;2023-01-09T05:34:08;4.90;99.90
11538;DHT22;50159;49.426;11.182;2023-01-09T05:36:35;4.90;99.90
11538;DHT22;50159;49.426;11.182;2023-01-09T05:39:02;5.00;99.90
11538;DHT22;50159;49.426;11.182;2023-01-09T05:41:29;5.00;99.90
11538;DHT22;50159;49.426;11.182;2023-01-09T05:43:59;5.00;99.90
11538;DHT22;50159;49.426;11.182;2023-01-09T05:46:26;5.00;99.90
11538;DHT22;50159;49.426;11.182;2023-01-09T05:48:52;5.00;99.90
11538;DHT22;50159;49.426;11.182;2023-01-09T05:51:19;5.00;99.90
11538;DHT22;50159;49.426;11.182;2023-01-09T05:53:46;5.10;99.90
11538;DHT22;50159;49.426;11.182;2023-01-09T05:56:13;5.10;99.90
11538;DHT22;50159;49.426;11.182;2023-01-09T05:58:40;5.10;99.90
11538;DHT22;50159;49.426;11.182;2023-01-09T06:01:07;5.10;99.90
11538;DHT22;50159;49.426;11.182;2023-01-09T06:03:34;5.20;99.90
11538;DHT22;50159;49.426;11.182;2023-01-09T06:06:01;5.20;99.90
11538;DHT22;50159;49.426;11.182;2023-01-09T06:08:28;5.20;99.90
11538;DHT22;50159;49.426;11.182;2023-01-09T06:10:54;5.20;99.90
11538;DHT22;50159;49.426;11.182;2023-01-09T06:13:21;5.30;99.90
11538;DHT22;50159;49.426;11.182;2023-01-09T06:15:48;5.40;99.90
11538;DHT22;50159;49.426;11.182;2023-01-09T06:18:15;5.40;99.90
11538;DHT22;50159;49.426;11.182;2023-01-09T06:20:43;5.50;99.90
11538;DHT22;50159;49.426;11.182;2023-01-09T06:23:11;5.50;99.90
11538;DHT22;50159;49.426;11.182;2023-01-09T06:25:39;5.60;99.90
11538;DHT22;50159;49.426;11.182;2023-01-09T06:28:06;5.60;99.90
11538;DHT22;50159;49.426;11.182;2023-01-09T06:30:33;5.70;99.90
11538;DHT22;50159;49.426;11.182;2023-01-09T06:33:00;5.70;99.90
11538;DHT22;50159;49.426;11.182;2023-01-09T06:35:27;5.80;99.90
11538;DHT22;50159;49.426;11.182;2023-01-09T06:37:54;5.80;99.90
11538;DHT22;50159;49.426;11.182;2023-01-09T06:40:21;5.90;99.90
11538;DHT22;50159;49.426;11.182;2023-01-09T06:42:48;5.90;99.90
11538;DHT22;50159;49.426;11.182;2023-01-09T06:45:15;5.90;99.90
11538;DHT22;50159;49.426;11.182;2023-01-09T06:47:42;5.90;99.90
11538;DHT22;50159;49.426;11.182;2023-01-09T06:50:10;5.90;99.90
11538;DHT22;50159;49.426;11.182;2023-01-09T06:52:37;5.90;99.90
11538;DHT22;50159;49.426;11.182;2023-01-09T06:55:04;5.90;99.90
11538;DHT22;50159;49.426;11.182;2023-01-09T06:57:32;5.80;99.90
11538;DHT22;50159;49.426;11.182;2023-01-09T06:59:59;5.80;99.90
11538;DHT22;50159;49.426;11.182;2023-01-09T07:02:26;5.80;99.90
11538;DHT22;50159;49.426;11.182;2023-01-09T07:04:52;5.80;99.90
11538;DHT22;50159;49.426;11.182;2023-01-09T07:07:19;5.80;99.90
11538;DHT22;50159;49.426;11.182;2023-01-09T07:09:48;5.80;99.90
11538;DHT22;50159;49.426;11.182;2023-01-09T07:12:14;5.90;99.90
11538;DHT22;50159;49.426;11.182;2023-01-09T07:14:41;5.90;99.90
11538;DHT22;50159;49.426;11.182;2023-01-09T07:17:13;5.80;99.90
11538;DHT22;50159;49.426;11.182;2023-01-09T07:19:39;5.80;99.90
11538;DHT22;50159;49.426;11.182;2023-01-09T07:22:07;5.90;99.90
11538;DHT22;50159;49.426;11.182;2023-01-09T07:24:34;5.90;99.90
11538;DHT22;50159;49.426;11.182;2023-01-09T07:27:01;5.90;99.90
11538;DHT22;50159;49.426;11.182;2023-01-09T07:29:28;5.80;99.90
11538;DHT22;50159;49.426;11.182;2023-01-09T07:31:56;5.80;99.90
11538;DHT22;50159;49.426;11.182;2023-01-09T07:34:22;5.80;99.90
11538;DHT22;50159;49.426;11.182;2023-01-09T07:36:49;5.80;99.90
11538;DHT22;50159;49.426;11.182;2023-01-09T07:39:16;5.80;99.90
11538;DHT22;50159;49.426;11.182;2023-01-09T07:41:44;5.80;99.90
11538;DHT22;50159;49.426;11.182;2023-01-09T07:44:12;5.80;99.90
11538;DHT22;50159;49.426;11.182;2023-01-09T07:46:39;5.80;99.90
11538;DHT22;50159;49.426;11.182;2023-01-09T07:49:06;5.80;99.90
11538;DHT22;50159;49.426;11.182;2023-01-09T07:51:33;5.90;99.90
11538;DHT22;50159;49.426;11.182;2023-01-09T07:54:00;5.90;99.90
11538;DHT22;50159;49.426;11.182;2023-01-09T07:56:27;5.90;99.90
11538;DHT22;50159;49.426;11.182;2023-01-09T07:58:54;5.90;99.90
11538;DHT22;50159;49.426;11.182;2023-01-09T08:01:20;5.90;99.90
11538;DHT22;50159;49.426;11.182;2023-01-09T08:03:47;6.00;99.90
11538;DHT22;50159;49.426;11.182;2023-01-09T08:06:17;6.00;99.90
11538;DHT22;50159;49.426;11.182;2023-01-09T08:08:43;6.00;99.90
11538;DHT22;50159;49.426;11.182;2023-01-09T08:11:10;6.00;99.90
11538;DHT22;50159;49.426;11.182;2023-01-09T08:13:37;6.00;99.90
11538;DHT22;50159;49.426;11.182;2023-01-09T08:16:04;6.10;99.90
11538;DHT22;50159;49.426;11.182;2023-01-09T08:18:31;6.00;99.90
11538;DHT22;50159;49.426;11.182;2023-01-09T08:20:58;6.00;99.90
11538;DHT22;50159;49.426;11.182;2023-01-09T08:23:25;6.00;99.90
11538;DHT22;50159;49.426;11.182;2023-01-09T08:25:52;6.00;99.90
11538;DHT22;50159;49.426;11.182;2023-01-09T08:28:19;6.10;99.90
11538;DHT22;50159;49.426;11.182;2023-01-09T08:30:46;6.10;99.90
11538;DHT22;50159;49.426;11.182;2023-01-09T08:33:13;6.10;99.90
11538;DHT22;50159;49.426;11.182;2023-01-09T08:35:42;6.10;99.90
11538;DHT22;50159;49.426;11.182;2023-01-09T08:38:09;6.10;99.90
11538;DHT22;50159;49.426;11.182;2023-01-09T08:40:36;6.10;99.90
11538;DHT22;50159;49.426;11.182;2023-01-09T08:43:03;6.10;99.90
11538;DHT22;50159;49.426;11.182;2023-01-09T08:45:49;6.10;99.90
11538;DHT22;50159;49.426;11.182;2023-01-09T08:48:35;6.10;99.90
11538;DHT22;50159;49.426;11.182;2023-01-09T08:51:02;6.10;99.90
11538;DHT22;50159;49.426;11.182;2023-01-09T08:53:28;6.10;99.90
11538;DHT22;50159;49.426;11.182;2023-01-09T08:55:56;6.10;99.90
11538;DHT22;50159;49.426;11.182;2023-01-09T08:58:23;6.10;99.90
11538;DHT22;50159;49.426;11.182;2023-01-09T09:00:50;6.20;99.90
11538;DHT22;50159;49.426;11.182;2023-01-09T09:03:17;6.10;99.90
11538;DHT22;50159;49.426;11.182;2023-01-09T09:05:44;6.10;99.90
11538;DHT22;50159;49.426;11.182;2023-01-09T09:08:12;6.10;99.90
11538;DHT22;50159;49.426;11.182;2023-01-09T09:10:39;6.10;99.90
11538;DHT22;50159;49.426;11.182;2023-01-09T09:13:05;6.00;99.90
11538;DHT22;50159;49.426;11.182;2023-01-09T09:15:32;6.00;99.90
11538;DHT22;50159;49.426;11.182;2023-01-09T09:18:02;6.10;99.90
11538;DHT22;50159;49.426;11.182;2023-01-09T09:20:32;6.10;99.90
11538;DHT22;50159;49.426;11.182;2023-01-09T09:23:01;6.10;99.90
11538;DHT22;50159;49.426;11.182;2023-01-09T09:25:28;6.10;99.90
11538;DHT22;50159;49.426;11.182;2023-01-09T09:27:55;6.10;99.90
11538;DHT22;50159;49.426;11.182;2023-01-09T09:30:22;6.20;99.90
11538;DHT22;50159;49.426;11.182;2023-01-09T09:32:50;6.10;99.90
11538;DHT22;50159;49.426;11.182;2023-01-09T09:35:17;6.20;99.90
11538;DHT22;50159;49.426;11.182;2023-01-09T09:37:57;6.10;99.90
11538;DHT22;50159;49.426;11.182;2023-01-09T09:40:53;6.20;99.90
11538;DHT22;50159;49.426;11.182;2023-01-09T09:55:40;6.50;99.90
11538;DHT22;50159;49.426;11.182;2023-01-09T09:58:36;6.60;99.90
11538;DHT22;50159;49.426;11.182;2023-01-09T10:01:06;6.60;99.90
11538;DHT22;50159;49.426;11.182;2023-01-09T10:03:46;6.50;99.90
11538;DHT22;50159;49.426;11.182;2023-01-09T10:06:25;6.50;99.90
11538;DHT22;50159;49.426;11.182;2023-01-09T10:09:05;6.40;99.90
11538;DHT22;50159;49.426;11.182;2023-01-09T10:11:58;6.40;99.90
11538;DHT22;50159;49.426;11.182;2023-01-09T10:14:34;6.40;99.90
11538;DHT22;50159;49.426;11.182;2023-01-09T10:30:34;6.40;99.90
11538;DHT22;50159;49.426;11.182;2023-01-09T10:33:25;6.40;99.90
11538;DHT22;50159;49.426;11.182;2023-01-09T10:36:09;6.40;99.90
11538;DHT22;50159;49.426;11.182;2023-01-09T10:38:45;6.40;99.90
11538;DHT22;50159;49.426;11.182;2023-01-09T10:41:30;6.50;99.90
11538;DHT22;50159;49.426;11.182;2023-01-09T10:44:15;6.50;99.90
11538;DHT22;50159;49.426;11.182;2023-01-09T10:46:53;6.50;99.90
11538;DHT22;50159;49.426;11.182;2023-01-09T10:49:23;6.60;99.90
11538;DHT22;50159;49.426;11.182;2023-01-09T10:54:45;6.60;99.90
11538;DHT22;50159;49.426;11.182;2023-01-09T10:59:57;6.60;99.90
11538;DHT22;50159;49.426;11.182;2023-01-09T11:02:30;6.60;99.90
11538;DHT22;50159;49.426;11.182;2023-01-09T11:04:59;6.60;99.90
11538;DHT22;50159;49.426;11.182;2023-01-09T11:07:29;6.60;99.90
11538;DHT22;50159;49.426;11.182;2023-01-09T11:10:05;6.60;99.90
11538;DHT22;50159;49.426;11.182;2023-01-09T11:12:35;6.60;99.90
11538;DHT22;50159;49.426;11.182;2023-01-09T11:15:23;6.60;99.90
11538;DHT22;50159;49.426;11.182;2023-01-09T11:17:58;6.60;99.90
11538;DHT22;50159;49.426;11.182;2023-01-09T11:20:43;6.60;99.90
11538;DHT22;50159;49.426;11.182;2023-01-09T11:23:31;6.50;99.90
11538;DHT22;50159;49.426;11.182;2023-01-09T11:26:00;6.50;99.90
11538;DHT22;50159;49.426;11.182;2023-01-09T11:28:28;6.50;99.90
11538;DHT22;50159;49.426;11.182;2023-01-09T11:30:57;6.50;99.90
11538;DHT22;50159;49.426;11.182;2023-01-09T11:33:33;6.50;99.90
11538;DHT22;50159;49.426;11.182;2023-01-09T11:36:06;6.40;99.90
11538;DHT22;50159;49.426;11.182;2023-01-09T11:38:51;6.40;99.90
11538;DHT22;50159;49.426;11.182;2023-01-09T11:41:22;6.40;99.90
11538;DHT22;50159;49.426;11.182;2023-01-09T11:44:02;6.40;99.90
11538;DHT22;50159;49.426;11.182;2023-01-09T11:46:37;6.40;99.90
11538;DHT22;50159;49.426;11.182;2023-01-09T11:49:28;6.50;99.90
11538;DHT22;50159;49.426;11.182;2023-01-09T11:52:22;6.50;99.90
11538;DHT22;50159;49.426;11.182;2023-01-09T11:54:59;6.50;99.90
11538;DHT22;50159;49.426;11.182;2023-01-09T11:57:30;6.50;99.90
11538;DHT22;50159;49.426;11.182;2023-01-09T12:00:02;6.50;99.90
11538;DHT22;50159;49.426;11.182;2023-01-09T12:11:53;6.60;99.90
11538;DHT22;50159;49.426;11.182;2023-01-09T12:14:47;6.70;99.90
11538;DHT22;50159;49.426;11.182;2023-01-09T12:20:32;6.70;99.90
11538;DHT22;50159;49.426;11.182;2023-01-09T12:26:12;6.70;99.90
11538;DHT22;50159;49.426;11.182;2023-01-09T12:31:54;6.70;99.90
11538;DHT22;50159;49.426;11.182;2023-01-09T12:34:51;6.70;99.90
11538;DHT22;50159;49.426;11.182;2023-01-09T12:43:28;6.70;99.90
11538;DHT22;50159;49.426;11.182;2023-01-09T12:46:56;6.60;99.90
11538;DHT22;50159;49.426;11.182;2023-01-09T12:49:34;6.60;99.90
11538;DHT22;50159;49.426;11.182;2023-01-09T12:52:18;6.60;99.90
11538;DHT22;50159;49.426;11.182;2023-01-09T12:54:56;6.60;99.90
11538;DHT22;50159;49.426;11.182;2023-01-09T12:57:37;6.70;99.90
11538;DHT22;50159;49.426;11.182;2023-01-09T13:05:48;6.80;99.90
11538;DHT22;50159;49.426;11.182;2023-01-09T13:08:30;6.80;99.90
11538;DHT22;50159;49.426;11.182;2023-01-09T13:11:07;6.80;99.90
11538;DHT22;50159;49.426;11.182;2023-01-09T13:13:56;6.80;99.90
11538;DHT22;50159;49.426;11.182;2023-01-09T13:16:31;6.80;99.90
11538;DHT22;50159;49.426;11.182;2023-01-09T13:19:06;6.80;99.90
11538;DHT22;50159;49.426;11.182;2023-01-09T13:21:40;6.80;99.90
11538;DHT22;50159;49.426;11.182;2023-01-09T13:24:21;6.90;99.90
11538;DHT22;50159;49.426;11.182;2023-01-09T13:26:58;6.90;99.90
11538;DHT22;50159;49.426;11.182;2023-01-09T13:29:46;6.80;99.90
11538;DHT22;50159;49.426;11.182;2023-01-09T13:35:01;6.80;99.90
11538;DHT22;50159;49.426;11.182;2023-01-09T13:37:34;6.80;99.90
11538;DHT22;50159;49.426;11.182;2023-01-09T13:40:03;6.90;99.90
11538;DHT22;50159;49.426;11.182;2023-01-09T13:42:32;7.00;99.90
11538;DHT22;50159;49.426;11.182;2023-01-09T13:45:28;7.00;99.90
11538;DHT22;50159;49.426;11.182;2023-01-09T13:50:45;7.00;99.90
11538;DHT22;50159;49.426;11.182;2023-01-09T14:06:40;6.90;99.90
11538;DHT22;50159;49.426;11.182;2023-01-09T14:09:20;6.90;99.90
11538;DHT22;50159;49.426;11.182;2023-01-09T14:12:04;6.90;99.90
11538;DHT22;50159;49.426;11.182;2023-01-09T14:14:32;6.90;99.90
11538;DHT22;50159;49.426;11.182;2023-01-09T14:17:00;7.00;99.90
11538;DHT22;50159;49.426;11.182;2023-01-09T14:19:35;7.00;99.90
11538;DHT22;50159;49.426;11.182;2023-01-09T14:22:06;7.00;99.90
11538;DHT22;50159;49.426;11.182;2023-01-09T14:24:49;7.00;99.90
11538;DHT22;50159;49.426;11.182;2023-01-09T14:50:34;6.90;99.90
11538;DHT22;50159;49.426;11.182;2023-01-09T14:53:25;6.90;99.90
11538;DHT22;50159;49.426;11.182;2023-01-09T14:55:56;6.80;99.90
11538;DHT22;50159;49.426;11.182;2023-01-09T14:58:29;6.80;99.90
11538;DHT22;50159;49.426;11.182;2023-01-09T15:01:01;6.80;99.90
11538;DHT22;50159;49.426;11.182;2023-01-09T15:03:56;6.70;99.90
11538;DHT22;50159;49.426;11.182;2023-01-09T15:06:44;6.70;99.90
11538;DHT22;50159;49.426;11.182;2023-01-09T15:09:40;6.70;99.90
11538;DHT22;50159;49.426;11.182;2023-01-09T15:12:18;6.70;99.90
11538;DHT22;50159;49.426;11.182;2023-01-09T15:14:51;6.70;99.90
11538;DHT22;50159;49.426;11.182;2023-01-09T15:17:28;6.60;99.90
11538;DHT22;50159;49.426;11.182;2023-01-09T15:19:59;6.60;99.90
11538;DHT22;50159;49.426;11.182;2023-01-09T15:22:34;6.60;99.90
11538;DHT22;50159;49.426;11.182;2023-01-09T15:25:25;6.50;99.90
11538;DHT22;50159;49.426;11.182;2023-01-09T15:31:13;6.20;99.90
11538;DHT22;50159;49.426;11.182;2023-01-09T15:33:45;6.00;99.90
11538;DHT22;50159;49.426;11.182;2023-01-09T15:36:22;5.80;99.90
11538;DHT22;50159;49.426;11.182;2023-01-09T15:38:51;5.60;99.90
11538;DHT22;50159;49.426;11.182;2023-01-09T15:41:25;5.40;99.90
11538;DHT22;50159;49.426;11.182;2023-01-09T15:44:16;5.30;99.90
11538;DHT22;50159;49.426;11.182;2023-01-09T15:46:47;5.20;99.90
11538;DHT22;50159;49.426;11.182;2023-01-09T15:49:16;5.10;99.90
11538;DHT22;50159;49.426;11.182;2023-01-09T15:51:45;5.10;99.90
11538;DHT22;50159;49.426;11.182;2023-01-09T15:54:17;5.10;99.90
11538;DHT22;50159;49.426;11.182;2023-01-09T15:56:50;5.10;99.90
11538;DHT22;50159;49.426;11.182;2023-01-09T15:59:23;5.10;99.90
11538;DHT22;50159;49.426;11.182;2023-01-09T16:02:00;5.10;99.90
11538;DHT22;50159;49.426;11.182;2023-01-09T16:04:50;5.10;99.90
11538;DHT22;50159;49.426;11.182;2023-01-09T16:07:20;5.10;99.90
11538;DHT22;50159;49.426;11.182;2023-01-09T16:09:48;5.10;99.90
11538;DHT22;50159;49.426;11.182;2023-01-09T16:12:23;5.10;99.90
11538;DHT22;50159;49.426;11.182;2023-01-09T16:14:53;5.20;99.90
11538;DHT22;50159;49.426;11.182;2023-01-09T16:17:23;5.20;99.90
11538;DHT22;50159;49.426;11.182;2023-01-09T16:19:54;5.10;99.90
11538;DHT22;50159;49.426;11.182;2023-01-09T16:22:28;5.10;99.90
11538;DHT22;50159;49.426;11.182;2023-01-09T16:24:59;5.10;99.90
11538;DHT22;50159;49.426;11.182;2023-01-09T16:27:29;5.10;99.90
11538;DHT22;50159;49.426;11.182;2023-01-09T16:30:04;5.00;99.90
11538;DHT22;50159;49.426;11.182;2023-01-09T16:32:45;5.00;99.90
11538;DHT22;50159;49.426;11.182;2023-01-09T16:35:15;5.00;99.90
11538;DHT22;50159;49.426;11.182;2023-01-09T16:37:44;5.00;99.90
11538;DHT22;50159;49.426;11.182;2023-01-09T16:42:44;5.00;99.90
11538;DHT22;50159;49.426;11.182;2023-01-09T16:45:39;5.10;99.90
11538;DHT22;50159;49.426;11.182;2023-01-09T16:48:14;5.00;99.90
11538;DHT22;50159;49.426;11.182;2023-01-09T16:50:42;5.00;99.90
11538;DHT22;50159;49.426;11.182;2023-01-09T16:53:16;5.00;99.90
11538;DHT22;50159;49.426;11.182;2023-01-09T16:55:45;5.00;99.90
11538;DHT22;50159;49.426;11.182;2023-01-09T16:58:17;5.00;99.90
11538;DHT22;50159;49.426;11.182;2023-01-09T17:00:50;4.90;99.90
11538;DHT22;50159;49.426;11.182;2023-01-09T17:03:17;4.90;99.90
11538;DHT22;50159;49.426;11.182;2023-01-09T17:05:48;4.80;99.90
11538;DHT22;50159;49.426;11.182;2023-01-09T17:10:52;4.80;99.90
11538;DHT22;50159;49.426;11.182;2023-01-09T17:13:20;4.80;99.90
11538;DHT22;50159;49.426;11.182;2023-01-09T17:15:47;4.70;99.90
11538;DHT22;50159;49.426;11.182;2023-01-09T17:18:16;4.70;99.90
11538;DHT22;50159;49.426;11.182;2023-01-09T17:20:51;4.60;99.90
11538;DHT22;50159;49.426;11.182;2023-01-09T17:23:22;4.60;99.90
11538;DHT22;50159;49.426;11.182;2023-01-09T17:25:55;4.60;99.90
11538;DHT22;50159;49.426;11.182;2023-01-09T17:28:46;4.60;99.90
11538;DHT22;50159;49.426;11.182;2023-01-09T17:31:15;4.60;99.90
11538;DHT22;50159;49.426;11.182;2023-01-09T17:33:42;4.60;99.90
11538;DHT22;50159;49.426;11.182;2023-01-09T17:38:52;4.50;99.90
11538;DHT22;50159;49.426;11.182;2023-01-09T17:41:21;4.60;99.90
11538;DHT22;50159;49.426;11.182;2023-01-09T17:43:50;4.50;99.90
11538;DHT22;50159;49.426;11.182;2023-01-09T17:46:23;4.50;99.90
11538;DHT22;50159;49.426;11.182;2023-01-09T17:48:53;4.50;99.90
11538;DHT22;50159;49.426;11.182;2023-01-09T17:51:20;4.40;99.90
11538;DHT22;50159;49.426;11.182;2023-01-09T17:53:47;4.40;99.90
11538;DHT22;50159;49.426;11.182;2023-01-09T17:56:22;4.30;99.90
11538;DHT22;50159;49.426;11.182;2023-01-09T17:58:50;4.30;99.90
11538;DHT22;50159;49.426;11.182;2023-01-09T18:01:18;4.30;99.90
11538;DHT22;50159;49.426;11.182;2023-01-09T18:03:46;4.20;99.90
11538;DHT22;50159;49.426;11.182;2023-01-09T18:06:17;4.20;99.90
11538;DHT22;50159;49.426;11.182;2023-01-09T18:08:45;4.20;99.90
11538;DHT22;50159;49.426;11.182;2023-01-09T18:11:15;4.10;99.90
11538;DHT22;50159;49.426;11.182;2023-01-09T18:13:45;4.10;99.90
11538;DHT22;50159;49.426;11.182;2023-01-09T18:16:15;4.00;99.90
11538;DHT22;50159;49.426;11.182;2023-01-09T18:18:43;4.00;99.90
11538;DHT22;50159;49.426;11.182;2023-01-09T18:21:14;4.00;99.90
11538;DHT22;50159;49.426;11.182;2023-01-09T18:23:42;4.00;99.90
11538;DHT22;50159;49.426;11.182;2023-01-09T18:26:10;4.00;99.90